sensor_id;sensor_type;location;lat;lon;timestamp;temperature;humidity
3626;DHT22;1827;50.534;8.316;2023-11-21T00:01:37;7.30;99.90
3626;DHT22;1827;50.534;8.316;2023-11-21T00:04:03;7.30;99.90
3626;DHT22;1827;50.534;8.316;2023-11-21T00:06:29;7.50;99.90
3626;DHT22;1827;50.534;8.316;2023-11-21T00:08:56;7.40;99.90
3626;DHT22;1827;50.534;8.316;2023-11-21T00:11:22;7.40;99.90
3626;DHT22;1827;50.534;8.316;2023-11-21T00:13:48;7.40;99.90
3626;DHT22;1827;50.534;8.316;2023-11-21T00:16:15;7.40;99.90
3626;DHT22;1827;50.534;8.316;2023-11-21T00:18:42;7.40;99.90
3626;DHT22;1827;50.534;8.316;2023-11-21T00:21:08;7.30;99.90
3626;DHT22;1827;50.534;8.316;2023-11-21T00:23:35;7.30;99.90
3626;DHT22;1827;50.534;8.316;2023-11-21T00:26:02;7.40;99.90
3626;DHT22;1827;50.534;8.316;2023-11-21T00:28:29;7.40;99.90
3626;DHT22;1827;50.534;8.316;2023-11-21T00:30:55;7.40;99.90
3626;DHT22;1827;50.534;8.316;2023-11-21T00:33:21;7.40;99.90
3626;DHT22;1827;50.534;8.316;2023-11-21T00:35:47;7.40;99.90
3626;DHT22;1827;50.534;8.316;2023-11-21T00:38:13;7.50;99.90
3626;DHT22;1827;50.534;8.316;2023-11-21T00:40:39;7.40;99.90
3626;DHT22;1827;50.534;8.316;2023-11-21T00:43:07;7.40;99.90
3626;DHT22;1827;50.534;8.316;2023-11-21T00:45:33;7.40;99.90
3626;DHT22;1827;50.534;8.316;2023-11-21T00:48:01;7.40;99.90
3626;DHT22;1827;50.534;8.316;2023-11-21T00:50:28;7.30;99.90
3626;DHT22;1827;50.534;8.316;2023-11-21T00:52:56;7.40;99.90
3626;DHT22;1827;50.534;8.316;2023-11-21T00:55:23;7.40;99.90
3626;DHT22;1827;50.534;8.316;2023-11-21T00:57:53;7.40;99.90
3626;DHT22;1827;50.534;8.316;2023-11-21T01:00:22;7.30;99.90
3626;DHT22;1827;50.534;8.316;2023-11-21T01:02:50;7.40;99.90
3626;DHT22;1827;50.534;8.316;2023-11-21T01:05:17;7.30;99.90
3626;DHT22;1827;50.534;8.316;2023-11-21T01:07:43;7.30;99.90
3626;DHT22;1827;50.534;8.316;2023-11-21T01:10:10;7.40;99.90
3626;DHT22;1827;50.534;8.316;2023-11-21T01:12:38;7.50;99.90
3626;DHT22;1827;50.534;8.316;2023-11-21T01:15:06;7.50;99.90
3626;DHT22;1827;50.534;8.316;2023-11-21T01:17:33;7.50;99.90
3626;DHT22;1827;50.534;8.316;2023-11-21T01:20:02;7.40;99.90
3626;DHT22;1827;50.534;8.316;2023-11-21T01:22:31;7.40;99.90
3626;DHT22;1827;50.534;8.316;2023-11-21T01:24:58;7.40;99.90
3626;DHT22;1827;50.534;8.316;2023-11-21T01:27:25;7.40;99.90
3626;DHT22;1827;50.534;8.316;2023-11-21T01:29:52;7.40;99.90
3626;DHT22;1827;50.534;8.316;2023-11-21T01:32:19;7.40;99.90
3626;DHT22;1827;50.534;8.316;2023-11-21T01:34:45;7.40;99.90
3626;DHT22;1827;50.534;8.316;2023-11-21T01:37:11;7.30;99.90
3626;DHT22;1827;50.534;8.316;2023-11-21T01:39:37;7.30;99.90
3626;DHT22;1827;50.534;8.316;2023-11-21T01:42:05;7.30;99.90
3626;DHT22;1827;50.534;8.316;2023-11-21T01:44:31;7.30;99.90
3626;DHT22;1827;50.534;8.316;2023-11-21T01:46:57;7.30;99.90
3626;DHT22;1827;50.534;8.316;2023-11-21T01:49:23;7.30;99.90
3626;DHT22;1827;50.534;8.316;2023-11-21T01:51:51;7.30;99.90
3626;DHT22;1827;50.534;8.316;2023-11-21T01:54:19;7.30;99.90
3626;DHT22;1827;50.534;8.316;2023-11-21T01:56:47;7.30;99.90
3626;DHT22;1827;50.534;8.316;2023-11-21T01:59:21;7.30;99.90
3626;DHT22;1827;50.534;8.316;2023-11-21T02:01:49;7.30;99.90
3626;DHT22;1827;50.534;8.316;2023-11-21T02:04:19;7.40;99.90
3626;DHT22;1827;50.534;8.316;2023-11-21T02:06:47;7.50;99.90
3626;DHT22;1827;50.534;8.316;2023-11-21T02:09:14;7.50;99.90
3626;DHT22;1827;50.534;8.316;2023-11-21T02:11:42;7.50;99.90
3626;DHT22;1827;50.534;8.316;2023-11-21T02:14:10;7.40;99.90
3626;DHT22;1827;50.534;8.316;2023-11-21T02:16:39;7.40;99.90
3626;DHT22;1827;50.534;8.316;2023-11-21T02:19:10;7.30;99.90
3626;DHT22;1827;50.534;8.316;2023-11-21T02:21:39;7.30;99.90
3626;DHT22;1827;50.534;8.316;2023-11-21T02:24:07;7.40;99.90
3626;DHT22;1827;50.534;8.316;2023-11-21T02:26:33;7.40;99.90
3626;DHT22;1827;50.534;8.316;2023-11-21T02:28:59;7.40;99.90
3626;DHT22;1827;50.534;8.316;2023-11-21T02:31:26;7.30;99.90
3626;DHT22;1827;50.534;8.316;2023-11-21T02:33:52;7.30;99.90
3626;DHT22;1827;50.534;8.316;2023-11-21T02:36:18;7.30;99.90
3626;DHT22;1827;50.534;8.316;2023-11-21T02:38:45;7.30;99.90
3626;DHT22;1827;50.534;8.316;2023-11-21T02:41:11;7.30;99.90
3626;DHT22;1827;50.534;8.316;2023-11-21T02:43:37;7.40;99.90
3626;DHT22;1827;50.534;8.316;2023-11-21T02:46:04;7.40;99.90
3626;DHT22;1827;50.534;8.316;2023-11-21T02:48:30;7.30;99.90
3626;DHT22;1827;50.534;8.316;2023-11-21T02:50:56;7.40;99.90
3626;DHT22;1827;50.534;8.316;2023-11-21T02:53:23;7.40;99.90
3626;DHT22;1827;50.534;8.316;2023-11-21T02:55:50;7.50;99.90
3626;DHT22;1827;50.534;8.316;2023-11-21T02:58:16;7.50;99.90
3626;DHT22;1827;50.534;8.316;2023-11-21T03:00:42;7.50;99.90
3626;DHT22;1827;50.534;8.316;2023-11-21T03:03:08;7.50;99.90
3626;DHT22;1827;50.534;8.316;2023-11-21T03:05:34;7.50;99.90
3626;DHT22;1827;50.534;8.316;2023-11-21T03:08:02;7.50;99.90
3626;DHT22;1827;50.534;8.316;2023-11-21T03:10:29;7.50;99.90
3626;DHT22;1827;50.534;8.316;2023-11-21T03:12:55;7.40;99.90
3626;DHT22;1827;50.534;8.316;2023-11-21T03:15:23;7.40;99.90
3626;DHT22;1827;50.534;8.316;2023-11-21T03:17:49;7.40;99.90
3626;DHT22;1827;50.534;8.316;2023-11-21T03:20:15;7.30;99.90
3626;DHT22;1827;50.534;8.316;2023-11-21T03:22:42;7.30;99.90
3626;DHT22;1827;50.534;8.316;2023-11-21T03:25:08;7.40;99.90
3626;DHT22;1827;50.534;8.316;2023-11-21T03:27:36;7.50;99.90
3626;DHT22;1827;50.534;8.316;2023-11-21T03:30:04;7.50;99.90
3626;DHT22;1827;50.534;8.316;2023-11-21T03:32:33;7.50;99.90
3626;DHT22;1827;50.534;8.316;2023-11-21T03:34:59;7.50;99.90
3626;DHT22;1827;50.534;8.316;2023-11-21T03:37:25;7.40;99.90
3626;DHT22;1827;50.534;8.316;2023-11-21T03:39:57;7.40;99.90
3626;DHT22;1827;50.534;8.316;2023-11-21T03:42:23;7.40;99.90
3626;DHT22;1827;50.534;8.316;2023-11-21T03:44:52;7.30;99.90
3626;DHT22;1827;50.534;8.316;2023-11-21T03:47:20;7.30;99.90
3626;DHT22;1827;50.534;8.316;2023-11-21T03:49:46;7.20;99.90
3626;DHT22;1827;50.534;8.316;2023-11-21T03:52:15;7.10;99.90
3626;DHT22;1827;50.534;8.316;2023-11-21T03:54:41;7.00;99.90
3626;DHT22;1827;50.534;8.316;2023-11-21T03:57:08;6.90;99.90
3626;DHT22;1827;50.534;8.316;2023-11-21T03:59:36;6.80;99.90
3626;DHT22;1827;50.534;8.316;2023-11-21T04:02:02;6.80;99.90
3626;DHT22;1827;50.534;8.316;2023-11-21T04:04:27;6.70;99.90
3626;DHT22;1827;50.534;8.316;2023-11-21T04:06:53;6.50;99.90
3626;DHT22;1827;50.534;8.316;2023-11-21T04:09:19;6.50;99.90
3626;DHT22;1827;50.534;8.316;2023-11-21T04:11:45;6.40;99.90
3626;DHT22;1827;50.534;8.316;2023-11-21T04:14:12;6.50;99.90
3626;DHT22;1827;50.534;8.316;2023-11-21T04:16:38;6.40;99.90
3626;DHT22;1827;50.534;8.316;2023-11-21T04:19:10;6.30;99.90
3626;DHT22;1827;50.534;8.316;2023-11-21T04:21:36;6.30;99.90
3626;DHT22;1827;50.534;8.316;2023-11-21T04:24:02;6.30;99.90
3626;DHT22;1827;50.534;8.316;2023-11-21T04:26:28;6.30;99.90
3626;DHT22;1827;50.534;8.316;2023-11-21T04:28:55;6.30;99.90
3626;DHT22;1827;50.534;8.316;2023-11-21T04:31:23;6.40;99.90
3626;DHT22;1827;50.534;8.316;2023-11-21T04:33:50;6.30;99.90
3626;DHT22;1827;50.534;8.316;2023-11-21T04:36:17;6.40;99.90
3626;DHT22;1827;50.534;8.316;2023-11-21T04:38:43;6.50;99.90
3626;DHT22;1827;50.534;8.316;2023-11-21T04:41:11;6.50;99.90
3626;DHT22;1827;50.534;8.316;2023-11-21T04:43:41;6.40;99.90
3626;DHT22;1827;50.534;8.316;2023-11-21T04:46:09;6.40;99.90
3626;DHT22;1827;50.534;8.316;2023-11-21T04:48:36;6.40;99.90
3626;DHT22;1827;50.534;8.316;2023-11-21T04:51:03;6.40;99.90
3626;DHT22;1827;50.534;8.316;2023-11-21T04:53:31;6.40;99.90
3626;DHT22;1827;50.534;8.316;2023-11-21T04:55:57;6.50;99.90
3626;DHT22;1827;50.534;8.316;2023-11-21T04:58:24;6.40;99.90
3626;DHT22;1827;50.534;8.316;2023-11-21T05:00:50;6.40;99.90
3626;DHT22;1827;50.534;8.316;2023-11-21T05:03:16;6.50;99.90
3626;DHT22;1827;50.534;8.316;2023-11-21T05:05:43;6.40;99.90
3626;DHT22;1827;50.534;8.316;2023-11-21T05:08:10;6.40;99.90
3626;DHT22;1827;50.534;8.316;2023-11-21T05:10:37;6.40;99.90
3626;DHT22;1827;50.534;8.316;2023-11-21T05:13:05;6.40;99.90
3626;DHT22;1827;50.534;8.316;2023-11-21T05:15:35;6.40;99.90
3626;DHT22;1827;50.534;8.316;2023-11-21T05:18:02;6.40;99.90
3626;DHT22;1827;50.534;8.316;2023-11-21T05:20:28;6.40;99.90
3626;DHT22;1827;50.534;8.316;2023-11-21T05:22:55;6.50;99.90
3626;DHT22;1827;50.534;8.316;2023-11-21T05:25:23;6.40;99.90
3626;DHT22;1827;50.534;8.316;2023-11-21T05:27:50;6.40;99.90
3626;DHT22;1827;50.534;8.316;2023-11-21T05:30:18;6.50;99.90
3626;DHT22;1827;50.534;8.316;2023-11-21T05:32:45;6.50;99.90
3626;DHT22;1827;50.534;8.316;2023-11-21T05:35:13;6.50;99.90
3626;DHT22;1827;50.534;8.316;2023-11-21T05:37:43;6.50;99.90
3626;DHT22;1827;50.534;8.316;2023-11-21T05:40:12;6.60;99.90
3626;DHT22;1827;50.534;8.316;2023-11-21T05:42:40;6.50;99.90
3626;DHT22;1827;50.534;8.316;2023-11-21T05:45:08;6.50;99.90
3626;DHT22;1827;50.534;8.316;2023-11-21T05:47:43;6.40;99.90
3626;DHT22;1827;50.534;8.316;2023-11-21T05:50:14;6.50;99.90
3626;DHT22;1827;50.534;8.316;2023-11-21T05:52:43;6.50;99.90
3626;DHT22;1827;50.534;8.316;2023-11-21T05:55:12;6.40;99.90
3626;DHT22;1827;50.534;8.316;2023-11-21T05:57:42;6.50;99.90
3626;DHT22;1827;50.534;8.316;2023-11-21T06:00:11;6.50;99.90
3626;DHT22;1827;50.534;8.316;2023-11-21T06:02:39;6.50;99.90
3626;DHT22;1827;50.534;8.316;2023-11-21T06:05:06;6.50;99.90
3626;DHT22;1827;50.534;8.316;2023-11-21T06:07:32;6.50;99.90
3626;DHT22;1827;50.534;8.316;2023-11-21T06:09:58;6.50;99.90
3626;DHT22;1827;50.534;8.316;2023-11-21T06:12:25;6.50;99.90
3626;DHT22;1827;50.534;8.316;2023-11-21T06:14:50;6.50;99.90
3626;DHT22;1827;50.534;8.316;2023-11-21T06:17:17;6.40;99.90
3626;DHT22;1827;50.534;8.316;2023-11-21T06:19:44;6.40;99.90
3626;DHT22;1827;50.534;8.316;2023-11-21T06:22:11;6.40;99.90
3626;DHT22;1827;50.534;8.316;2023-11-21T06:24:38;6.30;99.90
3626;DHT22;1827;50.534;8.316;2023-11-21T06:27:05;6.40;99.90
3626;DHT22;1827;50.534;8.316;2023-11-21T06:29:31;6.40;99.90
3626;DHT22;1827;50.534;8.316;2023-11-21T06:31:57;6.40;99.90
3626;DHT22;1827;50.534;8.316;2023-11-21T06:34:24;6.40;99.90
3626;DHT22;1827;50.534;8.316;2023-11-21T06:36:51;6.40;99.90
3626;DHT22;1827;50.534;8.316;2023-11-21T06:39:18;6.40;99.90
3626;DHT22;1827;50.534;8.316;2023-11-21T06:41:49;6.40;99.90
3626;DHT22;1827;50.534;8.316;2023-11-21T06:44:16;6.40;99.90
3626;DHT22;1827;50.534;8.316;2023-11-21T06:46:42;6.40;99.90
3626;DHT22;1827;50.534;8.316;2023-11-21T06:49:08;6.50;99.90
3626;DHT22;1827;50.534;8.316;2023-11-21T06:51:34;6.50;99.90
3626;DHT22;1827;50.534;8.316;2023-11-21T06:54:00;6.50;99.90
3626;DHT22;1827;50.534;8.316;2023-11-21T06:56:26;6.50;99.90
3626;DHT22;1827;50.534;8.316;2023-11-21T06:58:52;6.50;99.90
3626;DHT22;1827;50.534;8.316;2023-11-21T07:01:21;6.50;99.90
3626;DHT22;1827;50.534;8.316;2023-11-21T07:03:47;6.60;99.90
3626;DHT22;1827;50.534;8.316;2023-11-21T07:06:12;6.50;99.90
3626;DHT22;1827;50.534;8.316;2023-11-21T07:08:39;6.50;99.90
3626;DHT22;1827;50.534;8.316;2023-11-21T07:11:04;6.60;99.90
3626;DHT22;1827;50.534;8.316;2023-11-21T07:13:31;6.50;99.90
3626;DHT22;1827;50.534;8.316;2023-11-21T07:15:59;6.60;99.90
3626;DHT22;1827;50.534;8.316;2023-11-21T07:18:25;6.60;99.90
3626;DHT22;1827;50.534;8.316;2023-11-21T07:20:50;6.70;99.90
3626;DHT22;1827;50.534;8.316;2023-11-21T07:23:18;6.70;99.90
3626;DHT22;1827;50.534;8.316;2023-11-21T07:25:44;6.60;99.90
3626;DHT22;1827;50.534;8.316;2023-11-21T07:28:10;6.60;99.90
3626;DHT22;1827;50.534;8.316;2023-11-21T07:30:36;6.70;99.90
3626;DHT22;1827;50.534;8.316;2023-11-21T07:33:02;6.70;99.90
3626;DHT22;1827;50.534;8.316;2023-11-21T07:35:28;6.70;99.90
3626;DHT22;1827;50.534;8.316;2023-11-21T07:37:53;6.70;99.90
3626;DHT22;1827;50.534;8.316;2023-11-21T07:40:19;6.70;99.90
3626;DHT22;1827;50.534;8.316;2023-11-21T07:42:45;6.80;99.90
3626;DHT22;1827;50.534;8.316;2023-11-21T07:45:11;6.80;99.90
3626;DHT22;1827;50.534;8.316;2023-11-21T07:47:37;6.80;99.90
3626;DHT22;1827;50.534;8.316;2023-11-21T07:50:04;6.90;99.90
3626;DHT22;1827;50.534;8.316;2023-11-21T07:52:30;7.00;99.90
3626;DHT22;1827;50.534;8.316;2023-11-21T07:54:56;7.00;99.90
3626;DHT22;1827;50.534;8.316;2023-11-21T07:57:22;7.00;99.90
3626;DHT22;1827;50.534;8.316;2023-11-21T07:59:47;7.00;99.90
3626;DHT22;1827;50.534;8.316;2023-11-21T08:02:13;7.20;99.90
3626;DHT22;1827;50.534;8.316;2023-11-21T08:04:40;7.20;99.90
3626;DHT22;1827;50.534;8.316;2023-11-21T08:07:06;7.30;99.90
3626;DHT22;1827;50.534;8.316;2023-11-21T08:09:32;7.30;99.90
3626;DHT22;1827;50.534;8.316;2023-11-21T08:12:00;7.40;99.90
3626;DHT22;1827;50.534;8.316;2023-11-21T08:14:28;7.40;99.90
3626;DHT22;1827;50.534;8.316;2023-11-21T08:16:54;7.40;99.90
3626;DHT22;1827;50.534;8.316;2023-11-21T08:19:24;7.40;99.90
3626;DHT22;1827;50.534;8.316;2023-11-21T08:21:54;7.50;99.90
3626;DHT22;1827;50.534;8.316;2023-11-21T08:24:21;7.40;99.90
3626;DHT22;1827;50.534;8.316;2023-11-21T08:26:48;7.40;99.90
3626;DHT22;1827;50.534;8.316;2023-11-21T08:29:13;7.50;99.90
3626;DHT22;1827;50.534;8.316;2023-11-21T08:31:39;7.50;99.90
3626;DHT22;1827;50.534;8.316;2023-11-21T08:34:07;7.80;99.90
3626;DHT22;1827;50.534;8.316;2023-11-21T08:36:32;7.90;99.90
3626;DHT22;1827;50.534;8.316;2023-11-21T08:38:58;7.80;99.90
3626;DHT22;1827;50.534;8.316;2023-11-21T08:41:25;7.90;99.90
3626;DHT22;1827;50.534;8.316;2023-11-21T08:43:53;8.10;99.90
3626;DHT22;1827;50.534;8.316;2023-11-21T08:46:21;8.00;99.90
3626;DHT22;1827;50.534;8.316;2023-11-21T08:48:46;7.90;99.90
3626;DHT22;1827;50.534;8.316;2023-11-21T08:51:12;7.90;99.90
3626;DHT22;1827;50.534;8.316;2023-11-21T08:53:39;7.70;99.90
3626;DHT22;1827;50.534;8.316;2023-11-21T08:56:06;7.80;99.90
3626;DHT22;1827;50.534;8.316;2023-11-21T08:58:32;7.90;99.90
3626;DHT22;1827;50.534;8.316;2023-11-21T09:00:59;7.70;99.90
3626;DHT22;1827;50.534;8.316;2023-11-21T09:03:26;7.60;99.90
3626;DHT22;1827;50.534;8.316;2023-11-21T09:05:55;7.70;99.90
3626;DHT22;1827;50.534;8.316;2023-11-21T09:08:21;7.70;99.90
3626;DHT22;1827;50.534;8.316;2023-11-21T09:10:47;7.80;99.90
3626;DHT22;1827;50.534;8.316;2023-11-21T09:13:13;7.90;99.90
3626;DHT22;1827;50.534;8.316;2023-11-21T09:15:39;7.90;99.90
3626;DHT22;1827;50.534;8.316;2023-11-21T09:18:05;8.10;99.90
3626;DHT22;1827;50.534;8.316;2023-11-21T09:20:31;8.10;99.90
3626;DHT22;1827;50.534;8.316;2023-11-21T09:22:56;8.20;99.90
3626;DHT22;1827;50.534;8.316;2023-11-21T09:25:22;8.30;99.90
3626;DHT22;1827;50.534;8.316;2023-11-21T09:27:48;8.40;99.90
3626;DHT22;1827;50.534;8.316;2023-11-21T09:30:14;8.40;99.90
3626;DHT22;1827;50.534;8.316;2023-11-21T09:32:40;8.40;99.90
3626;DHT22;1827;50.534;8.316;2023-11-21T09:35:06;8.30;99.90
3626;DHT22;1827;50.534;8.316;2023-11-21T09:37:35;8.30;99.90
3626;DHT22;1827;50.534;8.316;2023-11-21T09:40:04;8.30;99.90
3626;DHT22;1827;50.534;8.316;2023-11-21T09:42:36;8.50;99.90
3626;DHT22;1827;50.534;8.316;2023-11-21T09:45:28;8.60;99.90
3626;DHT22;1827;50.534;8.316;2023-11-21T09:47:57;8.80;99.90
3626;DHT22;1827;50.534;8.316;2023-11-21T09:50:23;8.90;99.90
3626;DHT22;1827;50.534;8.316;2023-11-21T09:55:45;9.40;99.90
3626;DHT22;1827;50.534;8.316;2023-11-21T09:58:12;9.30;99.90
3626;DHT22;1827;50.534;8.316;2023-11-21T10:00:44;9.60;99.90
3626;DHT22;1827;50.534;8.316;2023-11-21T10:03:10;9.80;99.90
3626;DHT22;1827;50.534;8.316;2023-11-21T10:05:38;9.90;99.90
3626;DHT22;1827;50.534;8.316;2023-11-21T10:08:07;10.00;99.90
3626;DHT22;1827;50.534;8.316;2023-11-21T10:10:33;10.20;99.90
3626;DHT22;1827;50.534;8.316;2023-11-21T10:13:03;10.30;99.90
3626;DHT22;1827;50.534;8.316;2023-11-21T10:15:34;10.40;99.90
3626;DHT22;1827;50.534;8.316;2023-11-21T10:18:05;10.20;99.90
3626;DHT22;1827;50.534;8.316;2023-11-21T10:20:33;10.10;99.90
3626;DHT22;1827;50.534;8.316;2023-11-21T10:23:00;9.90;99.90
3626;DHT22;1827;50.534;8.316;2023-11-21T10:25:30;9.80;99.90
3626;DHT22;1827;50.534;8.316;2023-11-21T10:28:02;10.00;99.90
3626;DHT22;1827;50.534;8.316;2023-11-21T10:30:35;10.10;99.90
3626;DHT22;1827;50.534;8.316;2023-11-21T10:33:07;10.00;99.90
3626;DHT22;1827;50.534;8.316;2023-11-21T10:35:49;10.00;99.90
3626;DHT22;1827;50.534;8.316;2023-11-21T10:38:21;10.10;99.90
3626;DHT22;1827;50.534;8.316;2023-11-21T10:40:49;10.70;99.90
3626;DHT22;1827;50.534;8.316;2023-11-21T10:43:16;10.90;99.90
3626;DHT22;1827;50.534;8.316;2023-11-21T10:45:42;10.70;99.90
3626;DHT22;1827;50.534;8.316;2023-11-21T10:48:15;10.70;99.90
3626;DHT22;1827;50.534;8.316;2023-11-21T10:50:41;11.10;99.90
3626;DHT22;1827;50.534;8.316;2023-11-21T10:53:07;11.30;99.90
3626;DHT22;1827;50.534;8.316;2023-11-21T10:55:34;11.30;99.90
3626;DHT22;1827;50.534;8.316;2023-11-21T10:58:04;10.90;99.90
3626;DHT22;1827;50.534;8.316;2023-11-21T11:00:32;10.50;99.90
3626;DHT22;1827;50.534;8.316;2023-11-21T11:02:58;10.50;99.90
3626;DHT22;1827;50.534;8.316;2023-11-21T11:05:26;10.60;99.90
3626;DHT22;1827;50.534;8.316;2023-11-21T11:08:05;10.60;99.90
3626;DHT22;1827;50.534;8.316;2023-11-21T11:10:31;10.70;99.90
3626;DHT22;1827;50.534;8.316;2023-11-21T11:12:58;10.70;99.90
3626;DHT22;1827;50.534;8.316;2023-11-21T11:15:25;11.00;99.90
3626;DHT22;1827;50.534;8.316;2023-11-21T11:17:52;11.40;99.90
3626;DHT22;1827;50.534;8.316;2023-11-21T11:20:18;11.30;99.90
3626;DHT22;1827;50.534;8.316;2023-11-21T11:22:55;11.30;99.90
3626;DHT22;1827;50.534;8.316;2023-11-21T11:25:53;11.20;99.90
3626;DHT22;1827;50.534;8.316;2023-11-21T11:28:35;11.30;99.90
3626;DHT22;1827;50.534;8.316;2023-11-21T11:34:32;11.20;99.90
3626;DHT22;1827;50.534;8.316;2023-11-21T11:37:03;11.10;99.90
3626;DHT22;1827;50.534;8.316;2023-11-21T11:39:41;11.40;99.90
3626;DHT22;1827;50.534;8.316;2023-11-21T11:42:16;11.60;99.90
3626;DHT22;1827;50.534;8.316;2023-11-21T11:50:12;11.60;99.90
3626;DHT22;1827;50.534;8.316;2023-11-21T11:52:46;11.80;99.90
3626;DHT22;1827;50.534;8.316;2023-11-21T11:55:14;11.70;99.90
3626;DHT22;1827;50.534;8.316;2023-11-21T11:57:45;11.90;99.90
3626;DHT22;1827;50.534;8.316;2023-11-21T12:00:42;12.00;99.90
3626;DHT22;1827;50.534;8.316;2023-11-21T12:03:09;11.80;99.90
3626;DHT22;1827;50.534;8.316;2023-11-21T12:05:36;11.50;99.90
3626;DHT22;1827;50.534;8.316;2023-11-21T12:08:06;11.40;99.90
3626;DHT22;1827;50.534;8.316;2023-11-21T12:10:34;11.40;99.90
3626;DHT22;1827;50.534;8.316;2023-11-21T12:13:02;12.00;99.90
3626;DHT22;1827;50.534;8.316;2023-11-21T12:15:28;12.00;99.90
3626;DHT22;1827;50.534;8.316;2023-11-21T12:17:58;12.30;99.90
3626;DHT22;1827;50.534;8.316;2023-11-21T12:20:27;12.40;99.90
3626;DHT22;1827;50.534;8.316;2023-11-21T12:22:57;11.60;1.00
3626;DHT22;1827;50.534;8.316;2023-11-21T12:25:29;11.50;1.00
3626;DHT22;1827;50.534;8.316;2023-11-21T12:28:00;11.40;1.00
3626;DHT22;1827;50.534;8.316;2023-11-21T12:30:29;11.30;1.00
3626;DHT22;1827;50.534;8.316;2023-11-21T12:32:59;11.30;99.90
3626;DHT22;1827;50.534;8.316;2023-11-21T12:35:28;11.30;1.00
3626;DHT22;1827;50.534;8.316;2023-11-21T12:37:56;11.10;1.00
3626;DHT22;1827;50.534;8.316;2023-11-21T12:40:24;11.20;1.00
3626;DHT22;1827;50.534;8.316;2023-11-21T12:42:58;11.30;99.90
3626;DHT22;1827;50.534;8.316;2023-11-21T12:45:26;11.30;1.00
3626;DHT22;1827;50.534;8.316;2023-11-21T12:48:01;10.70;99.90
3626;DHT22;1827;50.534;8.316;2023-11-21T12:50:31;10.60;31.50
3626;DHT22;1827;50.534;8.316;2023-11-21T12:53:05;10.70;1.00
3626;DHT22;1827;50.534;8.316;2023-11-21T12:55:36;10.60;1.00
3626;DHT22;1827;50.534;8.316;2023-11-21T12:58:08;10.70;1.00
3626;DHT22;1827;50.534;8.316;2023-11-21T13:00:38;10.70;99.90
3626;DHT22;1827;50.534;8.316;2023-11-21T13:03:07;10.60;99.90
3626;DHT22;1827;50.534;8.316;2023-11-21T13:05:36;10.60;23.20
3626;DHT22;1827;50.534;8.316;2023-11-21T13:08:10;10.50;1.00
3626;DHT22;1827;50.534;8.316;2023-11-21T13:10:43;10.50;1.00
3626;DHT22;1827;50.534;8.316;2023-11-21T13:13:13;10.50;1.00
3626;DHT22;1827;50.534;8.316;2023-11-21T13:15:53;10.40;1.00
3626;DHT22;1827;50.534;8.316;2023-11-21T13:18:24;10.40;1.00
3626;DHT22;1827;50.534;8.316;2023-11-21T13:20:59;10.30;99.90
3626;DHT22;1827;50.534;8.316;2023-11-21T13:23:34;10.20;99.90
3626;DHT22;1827;50.534;8.316;2023-11-21T13:26:03;10.20;99.90
3626;DHT22;1827;50.534;8.316;2023-11-21T13:28:34;10.20;99.90
3626;DHT22;1827;50.534;8.316;2023-11-21T13:31:03;10.10;99.90
3626;DHT22;1827;50.534;8.316;2023-11-21T13:33:39;10.00;99.90
3626;DHT22;1827;50.534;8.316;2023-11-21T13:36:07;10.10;99.90
3626;DHT22;1827;50.534;8.316;2023-11-21T13:38:35;10.10;99.00
3626;DHT22;1827;50.534;8.316;2023-11-21T13:41:04;10.10;68.30
3626;DHT22;1827;50.534;8.316;2023-11-21T13:43:33;10.10;29.80
3626;DHT22;1827;50.534;8.316;2023-11-21T13:45:59;10.00;1.00
3626;DHT22;1827;50.534;8.316;2023-11-21T13:48:29;9.90;1.00
3626;DHT22;1827;50.534;8.316;2023-11-21T13:51:06;10.00;1.00
3626;DHT22;1827;50.534;8.316;2023-11-21T13:53:47;10.00;1.00
3626;DHT22;1827;50.534;8.316;2023-11-21T13:56:16;10.00;1.00
3626;DHT22;1827;50.534;8.316;2023-11-21T13:58:51;10.00;1.00
3626;DHT22;1827;50.534;8.316;2023-11-21T14:01:18;9.90;1.00
3626;DHT22;1827;50.534;8.316;2023-11-21T14:04:02;9.90;1.00
3626;DHT22;1827;50.534;8.316;2023-11-21T14:06:39;9.80;1.00
3626;DHT22;1827;50.534;8.316;2023-11-21T14:09:24;9.80;1.00
3626;DHT22;1827;50.534;8.316;2023-11-21T14:11:52;9.80;1.00
3626;DHT22;1827;50.534;8.316;2023-11-21T14:14:25;9.80;1.00
3626;DHT22;1827;50.534;8.316;2023-11-21T14:16:52;9.80;1.00
3626;DHT22;1827;50.534;8.316;2023-11-21T14:19:18;9.70;1.00
3626;DHT22;1827;50.534;8.316;2023-11-21T14:21:47;9.70;1.00
3626;DHT22;1827;50.534;8.316;2023-11-21T14:24:17;9.70;1.00
3626;DHT22;1827;50.534;8.316;2023-11-21T14:26:45;9.70;1.00
3626;DHT22;1827;50.534;8.316;2023-11-21T14:29:12;9.80;1.00
3626;DHT22;1827;50.534;8.316;2023-11-21T14:31:41;9.80;1.00
3626;DHT22;1827;50.534;8.316;2023-11-21T14:34:07;9.90;1.00
3626;DHT22;1827;50.534;8.316;2023-11-21T14:36:34;9.80;1.00
3626;DHT22;1827;50.534;8.316;2023-11-21T14:39:03;9.70;1.00
3626;DHT22;1827;50.534;8.316;2023-11-21T14:41:33;9.70;1.00
3626;DHT22;1827;50.534;8.316;2023-11-21T14:44:02;9.70;1.00
3626;DHT22;1827;50.534;8.316;2023-11-21T14:46:33;9.70;1.00
3626;DHT22;1827;50.534;8.316;2023-11-21T14:49:00;9.60;1.00
3626;DHT22;1827;50.534;8.316;2023-11-21T14:51:48;9.60;1.00
3626;DHT22;1827;50.534;8.316;2023-11-21T14:54:29;9.60;1.00
3626;DHT22;1827;50.534;8.316;2023-11-21T14:57:12;9.70;1.00
3626;DHT22;1827;50.534;8.316;2023-11-21T14:59:45;9.70;1.00
3626;DHT22;1827;50.534;8.316;2023-11-21T15:02:14;9.60;17.00
3626;DHT22;1827;50.534;8.316;2023-11-21T15:04:44;9.60;32.10
3626;DHT22;1827;50.534;8.316;2023-11-21T15:07:12;9.50;36.30
3626;DHT22;1827;50.534;8.316;2023-11-21T15:09:39;9.50;60.50
3626;DHT22;1827;50.534;8.316;2023-11-21T15:12:07;9.40;45.30
3626;DHT22;1827;50.534;8.316;2023-11-21T15:14:51;9.40;47.10
3626;DHT22;1827;50.534;8.316;2023-11-21T15:17:22;9.40;58.20
3626;DHT22;1827;50.534;8.316;2023-11-21T15:19:50;9.40;41.30
3626;DHT22;1827;50.534;8.316;2023-11-21T15:22:16;9.40;24.70
3626;DHT22;1827;50.534;8.316;2023-11-21T15:24:43;9.40;6.70
3626;DHT22;1827;50.534;8.316;2023-11-21T15:27:14;9.30;3.80
3626;DHT22;1827;50.534;8.316;2023-11-21T15:29:41;9.30;5.40
3626;DHT22;1827;50.534;8.316;2023-11-21T15:32:09;9.20;20.70
3626;DHT22;1827;50.534;8.316;2023-11-21T15:34:36;9.30;54.40
3626;DHT22;1827;50.534;8.316;2023-11-21T15:37:03;9.20;73.80
3626;DHT22;1827;50.534;8.316;2023-11-21T15:39:30;9.20;93.30
3626;DHT22;1827;50.534;8.316;2023-11-21T15:41:57;9.20;99.90
3626;DHT22;1827;50.534;8.316;2023-11-21T15:44:23;9.20;99.90
3626;DHT22;1827;50.534;8.316;2023-11-21T15:46:51;9.20;99.90
3626;DHT22;1827;50.534;8.316;2023-11-21T15:49:17;9.10;99.90
3626;DHT22;1827;50.534;8.316;2023-11-21T15:51:48;9.10;99.90
3626;DHT22;1827;50.534;8.316;2023-11-21T15:54:22;9.10;99.90
3626;DHT22;1827;50.534;8.316;2023-11-21T15:56:50;9.00;99.90
3626;DHT22;1827;50.534;8.316;2023-11-21T15:59:18;9.00;99.90
3626;DHT22;1827;50.534;8.316;2023-11-21T16:01:44;9.10;99.90
3626;DHT22;1827;50.534;8.316;2023-11-21T16:04:13;9.10;99.90
3626;DHT22;1827;50.534;8.316;2023-11-21T16:06:46;9.10;99.90
3626;DHT22;1827;50.534;8.316;2023-11-21T16:09:13;9.10;99.90
3626;DHT22;1827;50.534;8.316;2023-11-21T16:11:50;9.10;99.90
3626;DHT22;1827;50.534;8.316;2023-11-21T16:14:23;9.00;99.90
3626;DHT22;1827;50.534;8.316;2023-11-21T16:16:55;8.90;99.90
3626;DHT22;1827;50.534;8.316;2023-11-21T16:19:23;8.90;99.90
3626;DHT22;1827;50.534;8.316;2023-11-21T16:21:48;9.00;99.90
3626;DHT22;1827;50.534;8.316;2023-11-21T16:24:14;9.00;99.90
3626;DHT22;1827;50.534;8.316;2023-11-21T16:26:43;9.00;99.90
3626;DHT22;1827;50.534;8.316;2023-11-21T16:29:09;9.00;99.90
3626;DHT22;1827;50.534;8.316;2023-11-21T16:31:40;9.00;99.90
3626;DHT22;1827;50.534;8.316;2023-11-21T16:34:13;9.00;99.90
3626;DHT22;1827;50.534;8.316;2023-11-21T16:36:39;9.00;99.90